createdAt,value
2022-11-16T00:02:13.795Z,14.50
2022-11-16T00:04:42.677Z,14.50
2022-11-16T00:07:11.436Z,14.50
2022-11-16T00:09:39.797Z,14.50
2022-11-16T00:12:12.676Z,14.50
2022-11-16T00:14:40.917Z,14.50
2022-11-16T00:17:09.104Z,14.40
2022-11-16T00:19:37.307Z,14.40
2022-11-16T00:22:05.547Z,14.40
2022-11-16T00:24:33.732Z,14.40
2022-11-16T00:27:02.050Z,14.40
2022-11-16T00:29:31.618Z,14.40
2022-11-16T00:31:59.796Z,14.30
2022-11-16T00:34:27.984Z,14.30
2022-11-16T00:36:56.196Z,14.30
2022-11-16T00:39:24.869Z,14.30
2022-11-16T00:41:53.043Z,14.20
2022-11-16T00:44:21.209Z,14.20
2022-11-16T00:46:50.776Z,14.20
2022-11-16T00:49:18.981Z,14.20
2022-11-16T00:51:47.149Z,14.20
2022-11-16T00:54:15.313Z,14.10
2022-11-16T00:56:43.460Z,14.10
2022-11-16T00:59:11.638Z,14.10
2022-11-16T01:01:39.914Z,14.10
2022-11-16T01:04:09.533Z,14.10
2022-11-16T01:06:37.722Z,14.00
2022-11-16T01:09:05.903Z,14.00
2022-11-16T01:11:51.392Z,14.00
2022-11-16T01:14:19.559Z,13.90
2022-11-16T01:16:50.935Z,13.90
2022-11-16T01:19:20.483Z,13.90
2022-11-16T01:21:48.747Z,13.90
2022-11-16T01:24:17.043Z,13.90
2022-11-16T01:26:45.257Z,13.90
2022-11-16T01:29:13.567Z,13.80
2022-11-16T01:31:41.848Z,13.80
2022-11-16T01:34:10.254Z,13.80
2022-11-16T01:36:39.839Z,13.80
2022-11-16T01:39:08.724Z,13.80
2022-11-16T01:41:37.274Z,13.70
2022-11-16T01:44:08.126Z,13.70
2022-11-16T01:46:36.291Z,13.70
2022-11-16T01:49:06.990Z,13.70
2022-11-16T01:51:36.029Z,13.70
2022-11-16T01:54:09.739Z,13.70
2022-11-16T01:56:39.753Z,13.60
2022-11-16T01:59:09.081Z,13.60
2022-11-16T02:01:37.333Z,13.60
2022-11-16T02:04:05.871Z,13.60
2022-11-16T02:06:51.990Z,13.60
2022-11-16T02:09:54.028Z,13.60
2022-11-16T02:12:55.223Z,13.60
2022-11-16T02:15:28.849Z,13.50
2022-11-16T02:18:10.306Z,13.50
2022-11-16T02:20:53.985Z,13.50
2022-11-16T02:23:52.270Z,13.50
2022-11-16T02:26:51.559Z,13.50
2022-11-16T02:29:30.033Z,13.40
2022-11-16T02:32:04.314Z,13.40
2022-11-16T02:34:36.845Z,13.40
2022-11-16T02:37:08.374Z,13.40
2022-11-16T02:39:40.391Z,13.40
2022-11-16T02:42:13.146Z,13.40
2022-11-16T02:44:47.877Z,13.40
2022-11-16T02:47:20.586Z,13.30
2022-11-16T02:49:52.886Z,13.30
2022-11-16T02:52:23.471Z,13.30
2022-11-16T02:54:51.677Z,13.30
2022-11-16T02:57:43.620Z,13.30
2022-11-16T03:00:21.229Z,13.30
2022-11-16T03:03:02.384Z,13.30
2022-11-16T03:05:36.249Z,13.30
2022-11-16T03:08:14.361Z,13.30
2022-11-16T03:11:02.794Z,13.30
2022-11-16T03:13:34.563Z,13.30
2022-11-16T03:16:11.031Z,13.30
2022-11-16T03:18:41.024Z,13.30
2022-11-16T03:21:19.461Z,13.30
2022-11-16T03:23:47.933Z,13.30
2022-11-16T03:26:19.814Z,13.20
2022-11-16T03:28:50.985Z,13.20
2022-11-16T03:31:26.878Z,13.20
2022-11-16T03:33:58.328Z,13.20
2022-11-16T03:36:30.770Z,13.20
2022-11-16T03:39:03.336Z,13.20
2022-11-16T03:41:34.389Z,13.20
2022-11-16T03:44:04.085Z,13.20
2022-11-16T03:46:33.709Z,13.20
2022-11-16T03:49:02.731Z,13.20
2022-11-16T03:51:30.995Z,13.10
2022-11-16T03:53:59.352Z,13.20
2022-11-16T03:56:27.538Z,13.20
2022-11-16T03:58:55.751Z,13.20
2022-11-16T04:01:24.247Z,13.20
2022-11-16T04:03:53.829Z,13.20
2022-11-16T04:06:39.392Z,13.20
2022-11-16T04:09:24.993Z,13.20
2022-11-16T04:12:10.774Z,13.20
2022-11-16T04:14:56.839Z,13.20
2022-11-16T04:17:43.749Z,13.20
2022-11-16T04:20:32.689Z,13.20
2022-11-16T04:23:24.089Z,13.20
2022-11-16T04:25:53.826Z,13.20
2022-11-16T04:28:26.247Z,13.20
2022-11-16T04:31:29.086Z,13.20
2022-11-16T04:34:14.875Z,13.20
2022-11-16T04:37:01.863Z,13.20
2022-11-16T04:39:30.073Z,13.20
2022-11-16T04:42:16.294Z,13.20
2022-11-16T04:45:01.891Z,13.20
2022-11-16T04:47:30.116Z,13.20
2022-11-16T04:49:58.308Z,13.20
2022-11-16T04:52:27.903Z,13.20
2022-11-16T04:54:56.076Z,13.20
2022-11-16T04:57:24.293Z,13.20
2022-11-16T04:59:52.465Z,13.20
2022-11-16T05:02:21.113Z,13.20
2022-11-16T05:04:49.305Z,13.20
2022-11-16T05:07:17.562Z,13.20
2022-11-16T05:09:48.792Z,13.30
2022-11-16T05:12:20.686Z,13.30
2022-11-16T05:14:48.810Z,13.30
2022-11-16T05:17:18.034Z,13.30
2022-11-16T05:20:04.318Z,13.20
2022-11-16T05:22:32.517Z,13.30
2022-11-16T05:25:02.105Z,13.30
2022-11-16T05:27:30.973Z,13.20
2022-11-16T05:29:59.199Z,13.20
2022-11-16T05:32:28.488Z,13.30
2022-11-16T05:34:56.684Z,13.30
2022-11-16T05:37:26.754Z,13.30
2022-11-16T05:39:57.026Z,13.30
2022-11-16T05:42:26.713Z,13.30
2022-11-16T05:44:54.899Z,13.30
2022-11-16T05:47:23.087Z,13.30
2022-11-16T05:49:51.504Z,13.30
2022-11-16T05:52:19.675Z,13.30
2022-11-16T05:54:47.885Z,13.30
2022-11-16T05:57:18.183Z,13.30
2022-11-16T05:59:47.748Z,13.30
2022-11-16T06:02:15.921Z,13.30
2022-11-16T06:04:44.143Z,13.30
2022-11-16T06:07:12.388Z,13.30
2022-11-16T06:09:40.604Z,13.30
2022-11-16T06:12:09.314Z,13.40
2022-11-16T06:14:37.536Z,13.40
2022-11-16T06:17:07.194Z,13.40
2022-11-16T06:19:36.516Z,13.40
2022-11-16T06:22:04.677Z,13.40
2022-11-16T06:24:32.880Z,13.40
2022-11-16T06:27:01.075Z,13.40
2022-11-16T06:29:29.256Z,13.40
2022-11-16T06:31:57.450Z,13.50
2022-11-16T06:34:27.032Z,13.50
2022-11-16T06:36:55.223Z,13.50
2022-11-16T06:39:23.399Z,13.50
2022-11-16T06:41:51.554Z,13.50
2022-11-16T06:44:19.730Z,13.50
2022-11-16T06:46:47.946Z,13.50
2022-11-16T06:49:16.341Z,13.50
2022-11-16T06:51:45.915Z,13.50
2022-11-16T06:54:14.128Z,13.60
2022-11-16T06:56:42.323Z,13.50
2022-11-16T06:59:10.569Z,13.50
2022-11-16T07:01:38.868Z,13.50
2022-11-16T07:04:11.852Z,13.50
2022-11-16T07:06:40.490Z,13.60
2022-11-16T07:09:10.532Z,13.60
2022-11-16T07:11:38.787Z,13.60
2022-11-16T07:14:07.017Z,13.60
2022-11-16T07:16:36.675Z,13.60
2022-11-16T07:19:05.383Z,13.70
2022-11-16T07:21:33.801Z,13.70
2022-11-16T07:24:01.958Z,13.70
2022-11-16T07:26:33.366Z,13.70
2022-11-16T07:29:02.321Z,13.70
2022-11-16T07:31:30.498Z,13.80
2022-11-16T07:33:58.644Z,13.80
2022-11-16T07:36:26.838Z,13.80
2022-11-16T07:38:55.303Z,13.80
2022-11-16T07:41:23.544Z,13.80
2022-11-16T07:43:53.572Z,13.80
2022-11-16T07:46:47.481Z,13.90
2022-11-16T07:49:16.288Z,13.90
2022-11-16T07:51:44.533Z,13.90
2022-11-16T07:54:13.424Z,13.90
2022-11-16T07:56:42.222Z,13.80
2022-11-16T07:59:11.878Z,13.80
2022-11-16T08:01:40.151Z,13.80
2022-11-16T08:04:08.388Z,13.80
2022-11-16T08:06:36.569Z,13.80
2022-11-16T08:09:04.900Z,13.70
2022-11-16T08:11:33.081Z,13.70
2022-11-16T08:14:01.281Z,13.60
2022-11-16T08:16:33.307Z,13.60
2022-11-16T08:19:02.398Z,13.60
2022-11-16T08:21:30.702Z,13.60
2022-11-16T08:23:59.160Z,13.60
2022-11-16T08:26:27.666Z,13.50
2022-11-16T08:28:57.144Z,13.60
2022-11-16T08:31:27.365Z,13.60
2022-11-16T08:33:57.662Z,13.60
2022-11-16T08:36:25.880Z,13.60
2022-11-16T08:38:54.173Z,13.60
2022-11-16T08:41:22.830Z,13.60
2022-11-16T08:43:53.433Z,13.60
2022-11-16T08:46:22.640Z,13.60
2022-11-16T08:48:50.846Z,13.70
2022-11-16T08:51:21.126Z,13.70
2022-11-16T08:53:49.929Z,13.70
2022-11-16T08:56:19.430Z,13.80
2022-11-16T08:58:51.310Z,13.90
2022-11-16T09:01:22.672Z,13.90
2022-11-16T09:03:51.156Z,13.90
2022-11-16T09:06:20.763Z,14.00
2022-11-16T09:08:49.641Z,14.00
2022-11-16T09:11:20.096Z,14.10
2022-11-16T09:13:49.991Z,14.10
2022-11-16T09:16:20.989Z,14.10
2022-11-16T09:18:50.487Z,14.10
2022-11-16T09:21:22.195Z,14.10
2022-11-16T09:23:50.885Z,14.20
2022-11-16T09:26:21.463Z,14.20
2022-11-16T09:28:55.200Z,14.20
2022-11-16T09:31:24.046Z,14.20
2022-11-16T09:33:52.379Z,14.20
2022-11-16T09:36:22.119Z,14.20
2022-11-16T09:41:55.308Z,14.20
2022-11-16T09:44:40.897Z,14.20
2022-11-16T09:47:16.027Z,14.20
2022-11-16T09:49:48.549Z,14.30
2022-11-16T09:52:27.580Z,14.30
2022-11-16T09:54:59.195Z,14.30
2022-11-16T09:57:34.199Z,14.30
2022-11-16T10:00:05.736Z,14.40
2022-11-16T10:02:38.511Z,14.30
2022-11-16T10:05:17.903Z,14.40
2022-11-16T10:07:49.500Z,14.40
2022-11-16T10:10:19.812Z,14.50
2022-11-16T10:12:52.940Z,14.50
2022-11-16T10:15:39.817Z,14.50
2022-11-16T10:18:21.048Z,14.50
2022-11-16T10:21:19.923Z,14.50
2022-11-16T10:24:05.779Z,14.50
2022-11-16T10:26:42.877Z,14.50
2022-11-16T10:29:35.055Z,14.50
2022-11-16T10:32:13.527Z,14.50
2022-11-16T10:34:49.488Z,14.50
2022-11-16T10:37:17.707Z,14.50
2022-11-16T10:39:49.030Z,14.50
2022-11-16T10:42:23.054Z,14.50
2022-11-16T10:44:59.472Z,14.60
2022-11-16T10:47:34.988Z,14.60
2022-11-16T10:50:09.871Z,14.60
2022-11-16T10:52:38.075Z,14.70
2022-11-16T10:55:08.767Z,14.70
2022-11-16T10:57:54.633Z,14.70
2022-11-16T11:00:36.154Z,14.80
2022-11-16T11:03:04.655Z,14.80
2022-11-16T11:05:33.241Z,14.90
2022-11-16T11:08:03.260Z,14.90
2022-11-16T11:10:34.717Z,15.00
2022-11-16T11:13:26.213Z,15.00
2022-11-16T11:16:13.616Z,15.10
2022-11-16T11:18:41.878Z,15.20
2022-11-16T11:21:18.866Z,15.20
2022-11-16T11:23:50.868Z,15.20
2022-11-16T11:26:37.091Z,15.30
2022-11-16T11:29:17.852Z,15.30
2022-11-16T11:31:49.997Z,15.40
2022-11-16T11:34:21.673Z,15.40
2022-11-16T11:36:54.990Z,15.40
2022-11-16T11:39:36.983Z,15.50
2022-11-16T11:42:07.931Z,15.50
2022-11-16T11:44:49.237Z,15.60
2022-11-16T11:47:56.757Z,15.60
2022-11-16T11:50:26.928Z,15.60
2022-11-16T11:53:07.221Z,15.70
2022-11-16T11:55:35.807Z,15.70
2022-11-16T11:58:07.221Z,15.60
2022-11-16T12:00:42.801Z,15.70
2022-11-16T12:03:28.052Z,15.70
2022-11-16T12:06:10.994Z,15.70
2022-11-16T12:08:55.829Z,15.70
2022-11-16T12:11:33.384Z,15.70
2022-11-16T12:14:18.851Z,15.80
2022-11-16T12:16:54.106Z,15.70
2022-11-16T12:19:38.972Z,15.80
2022-11-16T12:22:19.852Z,15.80
2022-11-16T12:25:01.314Z,15.80
2022-11-16T12:27:38.037Z,15.90
2022-11-16T12:30:13.143Z,15.80
2022-11-16T12:33:03.751Z,15.80
2022-11-16T12:35:50.281Z,15.80
2022-11-16T12:38:31.013Z,15.80
2022-11-16T12:41:12.616Z,15.80
2022-11-16T12:43:51.425Z,15.80
2022-11-16T12:46:26.821Z,15.90
2022-11-16T12:49:32.503Z,15.80
2022-11-16T12:52:14.903Z,15.80
2022-11-16T12:55:25.319Z,15.80
2022-11-16T12:57:59.587Z,15.80
2022-11-16T13:00:30.094Z,15.80
2022-11-16T13:03:14.448Z,15.80
2022-11-16T13:05:54.053Z,15.80
2022-11-16T13:08:50.351Z,15.70
2022-11-16T13:11:23.965Z,15.70
2022-11-16T13:13:57.261Z,15.60
2022-11-16T13:16:26.333Z,15.60
2022-11-16T13:18:56.995Z,15.50
2022-11-16T13:21:37.843Z,15.50
2022-11-16T13:24:33.625Z,15.40
2022-11-16T13:27:16.633Z,15.30
2022-11-16T13:29:52.365Z,15.30
2022-11-16T13:32:26.314Z,15.20
2022-11-16T13:34:56.728Z,15.20
2022-11-16T13:37:47.266Z,15.10
2022-11-16T13:40:27.324Z,15.10
2022-11-16T13:43:08.352Z,15.00
2022-11-16T13:45:41.533Z,15.00
2022-11-16T13:48:19.621Z,15.00
2022-11-16T13:50:53.025Z,14.90
2022-11-16T13:56:16.927Z,14.90
2022-11-16T13:58:48.210Z,14.90
2022-11-16T14:01:17.798Z,14.80
2022-11-16T14:03:48.017Z,14.80
2022-11-16T14:07:04.732Z,14.80
2022-11-16T14:09:49.236Z,14.80
2022-11-16T14:12:59.646Z,14.80
2022-11-16T14:15:33.521Z,14.80
2022-11-16T14:18:37.267Z,14.80
2022-11-16T14:21:18.739Z,14.80
2022-11-16T14:23:59.849Z,14.70
2022-11-16T14:26:43.686Z,14.70
2022-11-16T14:29:36.589Z,14.70
2022-11-16T14:32:16.770Z,14.70
2022-11-16T14:34:48.138Z,14.70
2022-11-16T14:37:30.894Z,14.70
2022-11-16T14:40:05.830Z,14.60
2022-11-16T14:43:09.600Z,14.70
2022-11-16T14:45:36.839Z,14.60
2022-11-16T14:48:06.930Z,14.70
2022-11-16T14:50:40.842Z,14.70
2022-11-16T14:53:13.439Z,14.60
2022-11-16T14:55:43.870Z,14.60
2022-11-16T14:58:19.856Z,14.60
2022-11-16T15:00:55.075Z,14.60
2022-11-16T15:03:24.730Z,14.60
2022-11-16T15:05:53.001Z,14.60
2022-11-16T15:08:24.836Z,14.50
2022-11-16T15:10:53.477Z,14.50
2022-11-16T15:13:25.387Z,14.50
2022-11-16T15:16:08.128Z,14.50
2022-11-16T15:18:36.314Z,14.50
2022-11-16T15:21:04.579Z,14.50
2022-11-16T15:23:33.074Z,14.50
2022-11-16T15:26:02.443Z,14.50
2022-11-16T15:28:33.305Z,14.50
2022-11-16T15:31:04.926Z,14.50
2022-11-16T15:33:37.076Z,14.50
2022-11-16T15:36:23.783Z,14.40
2022-11-16T15:38:53.792Z,14.40
2022-11-16T15:41:23.918Z,14.40
2022-11-16T15:44:13.200Z,14.40
2022-11-16T15:46:43.651Z,14.40
2022-11-16T15:49:22.320Z,14.40
2022-11-16T15:51:50.488Z,14.40
2022-11-16T15:54:24.669Z,14.40
2022-11-16T15:56:55.467Z,14.40
2022-11-16T15:59:29.080Z,14.40
2022-11-16T16:01:57.629Z,14.40
2022-11-16T16:04:27.169Z,14.40
2022-11-16T16:06:56.739Z,14.30
2022-11-16T16:09:27.662Z,14.40
2022-11-16T16:11:57.488Z,14.30
2022-11-16T16:14:29.624Z,14.30
2022-11-16T16:16:59.389Z,14.30
2022-11-16T16:19:34.142Z,14.20
2022-11-16T16:22:02.651Z,14.30
2022-11-16T16:24:44.157Z,14.20
2022-11-16T16:27:17.699Z,14.20
2022-11-16T16:29:48.152Z,14.20
2022-11-16T16:32:24.117Z,14.20
2022-11-16T16:34:52.645Z,14.10
2022-11-16T16:37:21.096Z,14.10
2022-11-16T16:39:49.363Z,14.00
2022-11-16T16:42:18.767Z,14.10
2022-11-16T16:44:49.190Z,14.00
2022-11-16T16:47:20.660Z,14.00
2022-11-16T16:49:48.987Z,14.00
2022-11-16T16:52:17.875Z,13.90
2022-11-16T16:54:46.068Z,14.00
2022-11-16T16:57:15.769Z,13.90
2022-11-16T16:59:45.318Z,14.00
2022-11-16T17:02:16.218Z,14.00
2022-11-16T17:04:46.745Z,14.00
2022-11-16T17:07:15.231Z,14.00
2022-11-16T17:09:43.660Z,14.00
2022-11-16T17:12:12.281Z,14.00
2022-11-16T17:14:40.455Z,14.00
2022-11-16T17:17:08.780Z,14.00
2022-11-16T17:19:38.395Z,13.90
2022-11-16T17:22:06.580Z,13.90
2022-11-16T17:24:35.902Z,13.90
2022-11-16T17:27:04.105Z,13.90
2022-11-16T17:29:32.284Z,13.90
2022-11-16T17:32:00.538Z,13.90
2022-11-16T17:34:29.077Z,13.90
2022-11-16T17:36:58.626Z,13.80
2022-11-16T17:39:26.799Z,13.90
2022-11-16T17:41:54.987Z,13.90
2022-11-16T17:44:23.159Z,13.90
2022-11-16T17:46:51.363Z,13.80
2022-11-16T17:49:19.802Z,13.90
2022-11-16T17:51:47.974Z,13.90
2022-11-16T17:54:17.535Z,13.80
2022-11-16T17:56:45.722Z,13.80
2022-11-16T17:59:13.874Z,13.80
2022-11-16T18:01:42.095Z,13.80
2022-11-16T18:04:10.275Z,13.90
2022-11-16T18:06:39.437Z,13.80
2022-11-16T18:09:07.625Z,13.80
2022-11-16T18:11:39.428Z,13.90
2022-11-16T18:14:07.816Z,13.90
2022-11-16T18:16:36.220Z,13.90
2022-11-16T18:19:06.697Z,13.90
2022-11-16T18:21:40.227Z,13.80
2022-11-16T18:24:09.331Z,13.80
2022-11-16T18:26:40.266Z,13.80
2022-11-16T18:29:12.276Z,13.80
2022-11-16T18:31:40.469Z,13.80
2022-11-16T18:34:08.801Z,13.80
2022-11-16T18:36:36.964Z,13.80
2022-11-16T18:39:05.254Z,13.70
2022-11-16T18:41:33.456Z,13.70
2022-11-16T18:44:03.698Z,13.70
2022-11-16T18:46:33.222Z,13.70
2022-11-16T18:49:01.523Z,13.60
2022-11-16T18:51:30.631Z,13.60
2022-11-16T18:53:58.913Z,13.60
2022-11-16T18:56:27.304Z,13.50
2022-11-16T18:58:55.490Z,13.60
2022-11-16T19:01:27.432Z,13.60
2022-11-16T19:03:57.132Z,13.50
2022-11-16T19:06:25.730Z,13.60
2022-11-16T19:08:59.758Z,13.60
2022-11-16T19:11:29.457Z,13.60
2022-11-16T19:14:00.747Z,13.60
2022-11-16T19:16:31.030Z,13.60
2022-11-16T19:18:59.209Z,13.60
2022-11-16T19:21:27.383Z,13.60
2022-11-16T19:23:57.413Z,13.60
2022-11-16T19:26:27.557Z,13.60
2022-11-16T19:28:56.272Z,13.70
2022-11-16T19:31:25.893Z,13.70
2022-11-16T19:34:00.548Z,13.70
2022-11-16T19:36:30.135Z,13.70
2022-11-16T19:38:58.468Z,13.60
2022-11-16T19:41:27.768Z,13.70
2022-11-16T19:43:59.761Z,13.70
2022-11-16T19:46:29.623Z,13.70
2022-11-16T19:49:00.404Z,13.70
2022-11-16T19:51:30.291Z,13.70
2022-11-16T19:54:00.036Z,13.70
2022-11-16T19:56:28.868Z,13.70
2022-11-16T19:58:57.096Z,13.70
2022-11-16T20:01:27.866Z,13.70
2022-11-16T20:04:00.113Z,13.70
2022-11-16T20:06:30.381Z,13.80
2022-11-16T20:09:00.921Z,13.80
2022-11-16T20:11:31.108Z,13.80
2022-11-16T20:13:59.932Z,13.80
2022-11-16T20:16:33.930Z,13.80
2022-11-16T20:19:07.251Z,13.80
2022-11-16T20:21:37.366Z,13.80
2022-11-16T20:24:07.514Z,13.90
2022-11-16T20:26:37.089Z,13.90
2022-11-16T20:29:05.317Z,13.80
2022-11-16T20:31:34.472Z,13.90
2022-11-16T20:34:04.624Z,13.90
2022-11-16T20:36:35.108Z,13.90
2022-11-16T20:39:03.340Z,13.90
2022-11-16T20:41:34.314Z,13.90
2022-11-16T20:44:03.309Z,13.90
2022-11-16T20:46:33.657Z,13.90
2022-11-16T20:49:02.180Z,13.90
2022-11-16T20:51:30.996Z,13.90
2022-11-16T20:54:00.653Z,13.90
2022-11-16T20:56:29.102Z,13.90
2022-11-16T20:58:58.205Z,13.90
2022-11-16T21:01:31.580Z,13.90
2022-11-16T21:04:01.588Z,13.90
2022-11-16T21:06:30.691Z,14.00
2022-11-16T21:09:00.997Z,13.90
2022-11-16T21:11:30.907Z,14.00
2022-11-16T21:14:16.298Z,14.00
2022-11-16T21:16:44.799Z,13.90
2022-11-16T21:19:13.360Z,13.90
2022-11-16T21:21:41.583Z,13.90
2022-11-16T21:24:11.912Z,13.90
2022-11-16T21:26:41.456Z,13.90
2022-11-16T21:29:09.636Z,13.90
2022-11-16T21:31:38.326Z,13.90
2022-11-16T21:34:07.536Z,13.80
2022-11-16T21:36:41.354Z,13.80
2022-11-16T21:39:10.933Z,13.80
2022-11-16T21:41:39.104Z,13.80
2022-11-16T21:44:07.294Z,13.80
2022-11-16T21:46:35.474Z,13.80
2022-11-16T21:49:03.666Z,13.80
2022-11-16T21:51:32.003Z,13.80
2022-11-16T21:54:00.187Z,13.80
2022-11-16T21:56:29.781Z,14.00
2022-11-16T21:58:57.966Z,14.30
2022-11-16T22:01:46.253Z,14.70
2022-11-16T22:04:31.792Z,14.90
2022-11-16T22:07:22.791Z,15.40
2022-11-16T22:09:51.029Z,15.70
2022-11-16T22:12:20.611Z,15.80
2022-11-16T22:14:48.806Z,15.90
2022-11-16T22:17:17.021Z,15.80
2022-11-16T22:19:45.229Z,15.70
2022-11-16T22:22:13.553Z,15.60
2022-11-16T22:24:41.794Z,15.50
2022-11-16T22:27:10.051Z,15.30
2022-11-16T22:29:39.633Z,15.20
2022-11-16T22:32:07.815Z,15.00
2022-11-16T22:34:36.434Z,14.90
2022-11-16T22:37:04.630Z,14.70
2022-11-16T22:39:32.800Z,14.60
2022-11-16T22:42:01.006Z,14.50
2022-11-16T22:44:29.192Z,14.40
2022-11-16T22:46:58.795Z,14.30
2022-11-16T22:49:27.140Z,14.20
2022-11-16T22:51:55.370Z,14.10
2022-11-16T22:54:28.445Z,14.00
2022-11-16T22:56:57.009Z,13.90
2022-11-16T22:59:25.173Z,13.80
2022-11-16T23:01:53.379Z,13.70
2022-11-16T23:04:22.930Z,13.70
2022-11-16T23:06:51.129Z,13.60
2022-11-16T23:09:19.317Z,13.50
2022-11-16T23:12:05.036Z,13.50
2022-11-16T23:14:50.448Z,13.40
2022-11-16T23:17:18.607Z,13.40
2022-11-16T23:20:05.550Z,13.30
2022-11-16T23:22:51.248Z,13.30
2022-11-16T23:25:37.136Z,13.30
2022-11-16T23:28:08.078Z,13.30
2022-11-16T23:30:37.033Z,13.20
2022-11-16T23:33:05.336Z,13.20
2022-11-16T23:35:35.063Z,13.20
2022-11-16T23:38:05.163Z,13.20
2022-11-16T23:40:35.520Z,13.20
2022-11-16T23:43:21.783Z,13.20
2022-11-16T23:45:50.675Z,13.10
2022-11-16T23:48:19.902Z,13.10
2022-11-16T23:50:49.436Z,13.10
2022-11-16T23:53:17.582Z,13.10
2022-11-16T23:55:45.757Z,13.10
2022-11-16T23:58:15.525Z,13.10
